Nevada, TX (75173)

02:55 AM CDT del 25 Agosto 2016 (GMT -0500)
Nevada Lakes | | Change Station

Alt. 600 ft 33.05 °N, 96.38 °W | Updated 9 minutes ago

Clear
Sereno
78.1 °F
Sembra 81 °F
N
4.2
Vento Variabile Vento da Sud

Oggi
Massima -- | Minima -- °F
--% Possibilità di precip.
Ieri
Massima -- | Minima -- °F
Precip. -- in
Pressione 30.04 in
Visibilità 10.0 miglia
Nuvole Sereno
Indice di calore 81 °F
Punto di rugiada 74 °F
Umidità 86%
Piovosità 0.00 in
Spessore del manto nevoso Non disponibile.
6:55 AM 7:58 PM
Gobba a levante, 48% visible
METAR KF46 250735Z AUTO 18006G15KT 10SM CLR 26/23 A3004 RMK AO2 T02570230
Pressione 30.04 in
Visibilità 10.0 miglia
Nuvole Sereno
Indice di calore 81 °F
Punto di rugiada 74 °F
Umidità 86%
Piovosità 0.00 in
Spessore del manto nevoso Non disponibile.
6:55 AM 7:58 PM
Gobba a levante, 48% visible
METAR KF46 250735Z AUTO 18006G15KT 10SM CLR 26/23 A3004 RMK AO2 T02570230

10-Day Weather Forecast

Almanac

Astronomia

Aug. 25, 2016 Alba Tramonto
Ora attuale
Crepuscolo civile
Crepuscolo nautico
Crepuscolo astronomico
Luna
Estensione della luce visibile
Lunghezza del giorno
Tomorrow will be .
, % of the Moon is Illuminated

Gli estremi di oggi

State Highs State Lows

Community

WunderPhotos

Upload Photos

1,934,814 foto caricate!

WunderBlog® & News

Nearby

Qualità dell'aria

  Qualità dell'aria Indice AQ Inquinante
Not available.

Profondità neve

Stazione Profondità Altitudine

Attività sismica

Città  Distanza Mag. Data & Ora
Minimo Magnitudo Mostrato è 2.5.

Temperature delle acque costiere

Località Temperatura

Stations

Stazioni meteo nelle vicinanze

Ubicazione della stazione Temp. Raffreddamento del vento Punto di rugiada Umidità Vento Precip. Alt. Aggiornato Tipo
                   

Watches & Warnings

There are currently no watches in effect.